PWSweather.com
Personal Weather Stations
Station Observations
IBRABANT12
Leuven, BlandenBE 3052

LeuvenBlandenBE 3052

Lat: 50.8252218, Lon: 4.709682799999996

Elevation: 193

Station Type: Davis Vantage Vue

http://www.weerstationblanden.be

Latest ConditionsUpdated 5:20:17 AM GMT+01:01 Saturday, Mar 7, 2015
Currently Today's Max Today's Min Today's Average
Temperature 39.1°F3.9°C 40.4°F4.7°C 39.0°F3.9°C 39.6°F4.2°C
Dew Point 34.7°F1.5°C 35.9°F2.2°C 34.7°F1.5°C 35.2°F1.8°C
Winds 2.2 mph SSE3.5 kmh SSE 6.4 mph SW10.3 kmh SW - 3.3 mph 5.3 kmh
Wind Gusts 3.0 mph4.8 kmh 9.0 mph14.5 kmh - -
Humidity 84% 86% 83% 84%
Pressure 30.39 in1029.1 mb 30.46 in1031.5 mb 30.39 in1029.1 mb -
Hour Temp Dew Point Humidity Winds Wind Gusts Pressure Precip Precip Rate Daily Precip Total
05:20 AM 39.1°F3.9°C 34.7°F1.5°C 84% 2.2 mph SSE3.5 kmh SSE 3.0 mph4.8 kmh 30.39 in1029.1 mb 0.00 in0.0 mm 0.00 in/hr0.0 mm/hr 0.00 in0.0 mm
05:10 AM 39.3°F4.1°C 34.9°F1.6°C 84% 1.8 mph SW2.9 kmh SW 3.0 mph4.8 kmh 30.40 in1029.5 mb 0.00 in0.0 mm 0.00 in/hr0.0 mm/hr 0.00 in0.0 mm
05:00 AM 39.5°F4.2°C 34.8°F1.6°C 83% 2.2 mph SSW3.5 kmh SSW 3.0 mph4.8 kmh 30.40 in1029.5 mb 0.00 in0.0 mm 0.00 in/hr0.0 mm/hr 0.00 in0.0 mm
04:50 AM 39.6°F4.2°C 34.9°F1.6°C 83% 1.1 mph SW1.8 kmh SW 3.0 mph4.8 kmh 30.40 in1029.5 mb 0.00 in0.0 mm 0.00 in/hr0.0 mm/hr 0.00 in0.0 mm
04:40 AM 39.7°F4.3°C 35.0°F1.7°C 83% 2.5 mph SSW4.0 kmh SSW 4.0 mph6.4 kmh 30.40 in1029.5 mb 0.00 in0.0 mm 0.00 in/hr0.0 mm/hr 0.00 in0.0 mm
04:30 AM 39.7°F4.3°C 35.0°F1.7°C 83% 2.4 mph SW3.9 kmh SW 7.0 mph11.3 kmh 30.39 in1029.1 mb 0.00 in0.0 mm 0.00 in/hr0.0 mm/hr 0.00 in0.0 mm
04:20 AM 39.8°F4.3°C 35.1°F1.7°C 83% 4.0 mph SW6.4 kmh SW 6.0 mph9.7 kmh 30.40 in1029.5 mb 0.00 in0.0 mm 0.00 in/hr0.0 mm/hr 0.00 in0.0 mm
04:10 AM 39.5°F4.2°C 35.1°F1.7°C 84% 5.1 mph S8.2 kmh S 9.0 mph14.5 kmh 30.40 in1029.5 mb 0.00 in0.0 mm 0.00 in/hr0.0 mm/hr 0.00 in0.0 mm
04:00 AM 39.5°F4.2°C 35.1°F1.7°C 84% 3.2 mph SW5.1 kmh SW 6.0 mph9.7 kmh 30.40 in1029.5 mb 0.00 in0.0 mm 0.00 in/hr0.0 mm/hr 0.00 in0.0 mm
03:50 AM 39.6°F4.2°C 35.1°F1.7°C 84% 3.8 mph S6.1 kmh S 6.0 mph9.7 kmh 30.40 in1029.5 mb 0.00 in0.0 mm 0.00 in/hr0.0 mm/hr 0.00 in0.0 mm
03:40 AM 39.7°F4.3°C 35.3°F1.8°C 84% 6.4 mph SW10.3 kmh SW 7.0 mph11.3 kmh 30.40 in1029.5 mb 0.00 in0.0 mm 0.00 in/hr0.0 mm/hr 0.00 in0.0 mm
03:30 AM 39.8°F4.3°C 35.4°F1.9°C 84% 4.4 mph S7.1 kmh S 6.0 mph9.7 kmh 30.40 in1029.5 mb 0.00 in0.0 mm 0.00 in/hr0.0 mm/hr 0.00 in0.0 mm
03:20 AM 39.5°F4.2°C 35.4°F1.9°C 85% 5.4 mph SW8.7 kmh SW 6.0 mph9.7 kmh 30.41 in1029.8 mb 0.00 in0.0 mm 0.00 in/hr0.0 mm/hr 0.00 in0.0 mm
03:10 AM 39.0°F3.9°C 34.9°F1.6°C 85% 3.4 mph SSW5.5 kmh SSW 5.0 mph8.0 kmh 30.42 in1030.1 mb 0.00 in0.0 mm 0.00 in/hr0.0 mm/hr 0.00 in0.0 mm
03:00 AM 39.3°F4.1°C 34.9°F1.6°C 84% 2.0 mph SW3.2 kmh SW 4.0 mph6.4 kmh 30.42 in1030.1 mb 0.00 in0.0 mm 0.00 in/hr0.0 mm/hr 0.00 in0.0 mm
02:50 AM 39.4°F4.1°C 35.0°F1.7°C 84% 3.0 mph SW4.8 kmh SW 4.0 mph6.4 kmh 30.42 in1030.1 mb 0.00 in0.0 mm 0.00 in/hr0.0 mm/hr 0.00 in0.0 mm
02:40 AM 39.6°F4.2°C 35.1°F1.7°C 84% 2.7 mph SW4.3 kmh SW 4.0 mph6.4 kmh 30.42 in1030.1 mb 0.00 in0.0 mm 0.00 in/hr0.0 mm/hr 0.00 in0.0 mm
02:30 AM 39.5°F4.2°C 35.1°F1.7°C 84% 3.3 mph S5.3 kmh S 4.0 mph6.4 kmh 30.43 in1030.5 mb 0.00 in0.0 mm 0.00 in/hr0.0 mm/hr 0.00 in0.0 mm
02:20 AM 39.4°F4.1°C 35.0°F1.7°C 84% 2.8 mph SW4.5 kmh SW 5.0 mph8.0 kmh 30.42 in1030.1 mb 0.00 in0.0 mm 0.00 in/hr0.0 mm/hr 0.00 in0.0 mm
02:10 AM 39.4°F4.1°C 35.0°F1.7°C 84% 2.6 mph SSW4.2 kmh SSW 3.0 mph4.8 kmh 30.43 in1030.5 mb 0.00 in0.0 mm 0.00 in/hr0.0 mm/hr 0.00 in0.0 mm
02:00 AM 39.5°F4.2°C 34.7°F1.5°C 83% 1.9 mph S3.1 kmh S 3.0 mph4.8 kmh 30.43 in1030.5 mb 0.00 in0.0 mm 0.00 in/hr0.0 mm/hr 0.00 in0.0 mm
01:50 AM 39.6°F4.2°C 35.2°F1.8°C 84% 2.7 mph SW4.3 kmh SW 4.0 mph6.4 kmh 30.43 in1030.5 mb 0.00 in0.0 mm 0.00 in/hr0.0 mm/hr 0.00 in0.0 mm
01:40 AM 39.5°F4.2°C 35.1°F1.7°C 84% 2.5 mph SSW4.0 kmh SSW 5.0 mph8.0 kmh 30.44 in1030.8 mb 0.00 in0.0 mm 0.00 in/hr0.0 mm/hr 0.00 in0.0 mm
01:30 AM 39.6°F4.2°C 35.2°F1.8°C 84% 3.2 mph SW5.1 kmh SW 5.0 mph8.0 kmh 30.44 in1030.8 mb 0.00 in0.0 mm 0.00 in/hr0.0 mm/hr 0.00 in0.0 mm
01:20 AM 39.7°F4.3°C 35.3°F1.8°C 84% 3.7 mph SW6.0 kmh SW 4.0 mph6.4 kmh 30.44 in1030.8 mb 0.00 in0.0 mm 0.00 in/hr0.0 mm/hr 0.00 in0.0 mm
01:10 AM 39.8°F4.3°C 35.4°F1.9°C 84% 4.0 mph SW6.4 kmh SW 6.0 mph9.7 kmh 30.44 in1030.8 mb 0.00 in0.0 mm 0.00 in/hr0.0 mm/hr 0.00 in0.0 mm
01:00 AM 40.0°F4.4°C 35.6°F2.0°C 84% 4.9 mph S7.9 kmh S 7.0 mph11.3 kmh 30.44 in1030.8 mb 0.00 in0.0 mm 0.00 in/hr0.0 mm/hr 0.00 in0.0 mm
12:50 AM 40.2°F4.6°C 35.7°F2.1°C 84% 5.3 mph S8.5 kmh S 7.0 mph11.3 kmh 30.45 in1031.2 mb 0.00 in0.0 mm 0.00 in/hr0.0 mm/hr 0.00 in0.0 mm
12:40 AM 40.4°F4.7°C 35.9°F2.2°C 84% 3.6 mph S5.8 kmh S 6.0 mph9.7 kmh 30.45 in1031.2 mb 0.00 in0.0 mm 0.00 in/hr0.0 mm/hr 0.00 in0.0 mm
12:30 AM 40.0°F4.4°C 35.8°F2.1°C 85% 4.9 mph SW7.9 kmh SW 8.0 mph12.9 kmh 30.45 in1031.2 mb 0.00 in0.0 mm 0.00 in/hr0.0 mm/hr 0.00 in0.0 mm
12:20 AM 39.7°F4.3°C 35.9°F2.2°C 86% 3.5 mph SW5.6 kmh SW 5.0 mph8.0 kmh 30.45 in1031.2 mb 0.00 in0.0 mm 0.00 in/hr0.0 mm/hr 0.00 in0.0 mm
12:10 AM 39.7°F4.3°C 35.9°F2.2°C 86% 2.1 mph SW3.4 kmh SW 4.0 mph6.4 kmh 30.46 in1031.5 mb 0.00 in0.0 mm 0.00 in/hr0.0 mm/hr 0.00 in0.0 mm
12:00 AM 39.7°F4.3°C 35.8°F2.1°C 86% 2.6 mph SSW4.2 kmh SSW 4.0 mph6.4 kmh 30.45 in1031.2 mb 0.00 in0.0 mm 0.00 in/hr0.0 mm/hr 0.00 in0.0 mm